Time;durP1;ratioP1;P1;durP2;ratioP2;P2;SDS_P1;SDS_P2;PMS_P1;PMS_P2;Temp;Humidity;BMP_temperature;BMP_pressure;BME280_temperature;BME280_humidity;BME280_pressure;Samples;Min_cycle;Max_cycle;Signal;HPM_P1;HPM_P2
2021/11/17 02:26:11;;;;;;;79.65;41.75;;;6.80;99.90;;;;;;2099657;28;20085;-70
2021/11/17 02:27:18;;;;;;;88.68;45.22;;;6.80;99.90;;;;;;2104888;28;20051;-70
2021/11/17 02:28:33;;;;;;;84.22;43.38;;;6.80;99.90;;;;;;2102822;28;20070;-70
2021/11/17 02:29:41;;;;;;;83.55;43.75;;;6.80;99.90;;;;;;2104091;28;20701;-70
2021/11/17 02:31:13;;;;;;;87.65;44.08;;;6.80;99.90;;;;;;2105366;28;20452;-70
2021/11/17 02:32:40;;;;;;;86.15;44.00;;;6.80;99.90;;;;;;2096435;28;20060;-70
2021/11/17 02:33:46;;;;;;;84.45;43.08;;;6.80;99.90;;;;;;2097744;28;20028;-70
2021/11/17 02:34:53;;;;;;;80.63;40.88;;;6.80;99.90;;;;;;2097259;28;20028;-70
2021/11/17 02:36:18;;;;;;;80.80;42.88;;;6.80;99.90;;;;;;2104133;28;20356;-70
2021/11/17 02:37:52;;;;;;;80.88;41.55;;;6.80;99.90;;;;;;2092961;28;20024;-70
2021/11/17 02:39:26;;;;;;;81.22;42.22;;;6.80;99.90;;;;;;2093844;28;20136;-70
2021/11/17 02:40:39;;;;;;;83.38;41.78;;;6.80;99.90;;;;;;2101516;28;20074;-70
2021/11/17 02:42:08;;;;;;;79.43;42.47;;;6.80;99.90;;;;;;2104584;28;20517;-70
2021/11/17 02:43:34;;;;;;;83.93;44.30;;;6.80;99.90;;;;;;2099662;28;20043;-71
2021/11/17 02:44:47;;;;;;;81.82;43.17;;;6.80;99.90;;;;;;2086991;28;20025;-70
2021/11/17 02:46:09;;;;;;;88.30;45.17;;;6.80;99.90;;;;;;2099864;28;20066;-70
2021/11/17 02:47:24;;;;;;;87.40;44.53;;;6.80;99.90;;;;;;2100138;28;20038;-71
2021/11/17 02:48:45;;;;;;;91.32;46.58;;;6.80;99.90;;;;;;2101871;28;20108;-71
2021/11/17 02:50:11;;;;;;;88.70;44.75;;;6.80;99.90;;;;;;2088239;28;20035;-70
2021/11/17 02:51:51;;;;;;;81.53;43.30;;;6.80;99.90;;;;;;2082914;28;20031;-70
2021/11/17 02:53:07;;;;;;;91.30;46.13;;;6.80;99.90;;;;;;2082597;28;20173;-70
2021/11/17 02:54:36;;;;;;;91.20;46.22;;;6.80;99.90;;;;;;2098539;28;20032;-70
2021/11/17 02:56:08;;;;;;;85.90;44.65;;;6.80;99.90;;;;;;2096271;28;20020;-70
2021/11/17 02:57:09;;;;;;;87.57;44.08;;;6.80;99.90;;;;;;2083744;28;20033;-71
2021/11/17 02:58:33;;;;;;;84.68;44.35;;;6.80;99.90;;;;;;2099470;28;20051;-70
2021/11/17 02:59:45;;;;;;;85.40;42.95;;;6.80;99.90;;;;;;2104651;28;20024;-70
2021/11/17 03:00:51;;;;;;;82.25;43.70;;;6.80;99.90;;;;;;2096562;28;20094;-70
2021/11/17 03:02:39;;;;;;;80.75;42.15;;;6.80;99.90;;;;;;2105006;28;20506;-70
2021/11/17 03:03:55;;;;;;;85.57;43.78;;;6.80;99.90;;;;;;2093503;28;20044;-70
2021/11/17 03:05:23;;;;;;;83.72;44.67;;;6.80;99.90;;;;;;2098186;28;20537;-70
2021/11/17 03:06:24;;;;;;;86.45;44.85;;;6.80;99.90;;;;;;2101080;28;20104;-71
2021/11/17 03:07:46;;;;;;;87.63;44.45;;;6.80;99.90;;;;;;2102098;28;20214;-70
2021/11/17 03:08:59;;;;;;;85.32;44.25;;;6.80;99.90;;;;;;2097191;28;20025;-70
2021/11/17 03:10:23;;;;;;;83.10;44.60;;;6.80;99.90;;;;;;2088027;28;20037;-70
2021/11/17 03:11:42;;;;;;;87.22;45.85;;;6.80;99.90;;;;;;2091885;28;20762;-71
2021/11/17 03:13:14;;;;;;;89.10;45.58;;;6.90;99.90;;;;;;2104855;28;20442;-70
2021/11/17 03:15:01;;;;;;;87.05;44.47;;;6.90;99.90;;;;;;2098796;28;20480;-71
2021/11/17 03:16:20;;;;;;;92.70;46.42;;;6.90;99.90;;;;;;2098116;28;20021;-70
2021/11/17 03:18:11;;;;;;;84.88;44.40;;;6.80;99.90;;;;;;2101763;28;20031;-71
2021/11/17 03:19:46;;;;;;;86.38;44.28;;;6.90;99.90;;;;;;2095000;28;20016;-70
2021/11/17 03:20:55;;;;;;;82.53;42.50;;;6.90;99.90;;;;;;2098601;28;20028;-70
2021/11/17 03:22:19;;;;;;;82.95;43.53;;;6.90;99.90;;;;;;2104668;28;20035;-70
2021/11/17 03:23:40;;;;;;;79.45;42.10;;;6.90;99.90;;;;;;2101250;28;20032;-70
2021/11/17 03:24:56;;;;;;;77.47;40.83;;;6.90;99.90;;;;;;2095057;28;20029;-71
2021/11/17 03:26:15;;;;;;;79.20;41.28;;;6.90;99.90;;;;;;2091609;28;20033;-71
2021/11/17 03:27:30;;;;;;;78.15;41.88;;;6.90;99.90;;;;;;2093052;28;20021;-70
2021/11/17 03:28:37;;;;;;;77.40;41.28;;;6.90;99.90;;;;;;2094956;28;20032;-70
2021/11/17 03:30:04;;;;;;;75.88;41.03;;;6.90;99.90;;;;;;2104446;28;20059;-70
2021/11/17 03:31:36;;;;;;;78.82;41.10;;;6.90;99.90;;;;;;2099264;28;20376;-70
2021/11/17 03:32:55;;;;;;;;;;;7.00;99.90;;;;;;2100408;28;20021;-70
2021/11/17 03:34:09;;;;;;;88.65;45.00;;;6.90;99.90;;;;;;2098523;28;19974;-70
2021/11/17 03:35:38;;;;;;;94.53;47.97;;;6.90;99.90;;;;;;2100404;28;20013;-70
2021/11/17 03:36:50;;;;;;;95.65;48.17;;;6.90;99.90;;;;;;2105130;28;20570;-70
2021/11/17 03:38:40;;;;;;;100.53;49.78;;;6.90;99.90;;;;;;2097866;28;20103;-70
2021/11/17 03:39:59;;;;;;;103.45;50.65;;;6.90;99.90;;;;;;2095542;28;20044;-70
2021/11/17 03:41:13;;;;;;;96.93;48.58;;;6.90;99.90;;;;;;2094687;28;20021;-71
2021/11/17 03:42:38;;;;;;;98.72;48.65;;;6.90;99.90;;;;;;2103518;28;20182;-70
2021/11/17 03:44:08;;;;;;;96.43;48.17;;;6.90;99.90;;;;;;2104251;28;20020;-70
2021/11/17 03:45:25;;;;;;;96.93;49.05;;;6.90;99.90;;;;;;2088040;28;20600;-70
2021/11/17 03:46:38;;;;;;;101.05;50.05;;;6.90;99.90;;;;;;2092525;28;20025;-70
2021/11/17 03:48:06;;;;;;;97.22;49.10;;;6.90;99.90;;;;;;2105338;28;20028;-70
2021/11/17 03:49:21;;;;;;;97.32;49.25;;;6.90;99.90;;;;;;2092553;28;20025;-69
2021/11/17 03:50:57;;;;;;;94.70;47.80;;;6.80;99.90;;;;;;2100523;28;20143;-70
2021/11/17 03:52:21;;;;;;;100.60;49.55;;;6.80;99.90;;;;;;2097957;28;20032;-71
2021/11/17 03:53:53;;;;;;;97.70;48.55;;;6.80;99.90;;;;;;2104433;28;20024;-70
2021/11/17 03:55:27;;;;;;;96.35;48.72;;;6.80;99.90;;;;;;2095406;28;20035;-71
2021/11/17 03:56:53;;;;;;;96.95;46.95;;;6.80;99.90;;;;;;2089707;28;20037;-72
2021/11/17 03:57:56;;;;;;;88.32;45.08;;;6.90;99.90;;;;;;2088087;28;20107;-72
2021/11/17 03:59:10;;;;;;;87.07;45.65;;;6.80;99.90;;;;;;2097833;28;20447;-72
2021/11/17 04:00:52;;;;;;;91.47;46.78;;;6.90;99.90;;;;;;2097659;28;20028;-72
2021/11/17 04:02:11;;;;;;;97.43;47.65;;;6.80;99.90;;;;;;2096529;28;20033;-72
2021/11/17 04:03:42;;;;;;;102.60;51.00;;;6.80;99.90;;;;;;2095920;28;20510;-71
2021/11/17 04:04:58;;;;;;;92.80;46.38;;;6.80;99.90;;;;;;2100663;28;20494;-72
2021/11/17 04:06:21;;;;;;;89.75;45.97;;;6.80;99.90;;;;;;2091067;28;20029;-70
2021/11/17 04:07:43;;;;;;;92.22;46.88;;;6.80;99.90;;;;;;2086347;28;20036;-70
2021/11/17 04:08:56;;;;;;;92.97;46.50;;;6.80;99.90;;;;;;2096966;28;20025;-70
2021/11/17 04:10:06;;;;;;;95.35;47.83;;;6.80;99.90;;;;;;2099898;28;20181;-70
2021/11/17 04:11:16;;;;;;;98.30;48.13;;;6.80;99.90;;;;;;2100998;28;20558;-71
2021/11/17 04:12:28;;;;;;;97.53;49.45;;;6.80;99.90;;;;;;2103881;28;20024;-71
2021/11/17 04:13:58;;;;;;;94.85;48.63;;;6.80;99.90;;;;;;2104430;28;20405;-69
2021/11/17 04:15:35;;;;;;;98.25;48.50;;;6.80;99.90;;;;;;2099678;28;20039;-71
2021/11/17 04:16:57;;;;;;;98.93;48.88;;;6.80;99.90;;;;;;2096743;28;20020;-69
2021/11/17 04:18:24;;;;;;;98.35;49.58;;;6.80;99.90;;;;;;2093771;28;20503;-71
2021/11/17 04:19:41;;;;;;;94.22;48.90;;;6.80;99.90;;;;;;2103503;28;20012;-71
2021/11/17 04:20:56;;;;;;;89.30;46.53;;;6.80;99.90;;;;;;2083563;28;20025;-71
2021/11/17 04:22:14;;;;;;;89.88;45.28;;;6.80;99.90;;;;;;2081502;28;20025;-72
2021/11/17 04:23:31;;;;;;;86.60;45.38;;;6.80;99.90;;;;;;2087750;28;20040;-71
2021/11/17 04:24:47;;;;;;;87.13;44.60;;;6.80;99.90;;;;;;2101208;28;20026;-69
2021/11/17 04:25:55;;;;;;;93.72;48.17;;;6.80;99.90;;;;;;2097218;28;20029;-70
2021/11/17 04:26:59;;;;;;;97.13;50.08;;;6.80;99.90;;;;;;2092393;28;20028;-70
2021/11/17 04:28:36;;;;;;;97.10;49.30;;;6.80;99.90;;;;;;2089250;28;20047;-70
2021/11/17 04:30:09;;;;;;;95.78;49.15;;;6.80;99.90;;;;;;2101976;28;20411;-69
2021/11/17 04:31:23;;;;;;;97.40;48.20;;;6.80;99.90;;;;;;2101103;28;20063;-71
2021/11/17 04:32:51;;;;;;;93.85;45.53;;;6.80;99.90;;;;;;2102429;28;20070;-70
2021/11/17 04:34:01;;;;;;;103.28;50.20;;;6.80;99.90;;;;;;2094072;28;20760;-70
2021/11/17 04:35:08;;;;;;;99.75;48.38;;;6.80;99.90;;;;;;2100257;28;20044;-70
2021/11/17 04:36:27;;;;;;;93.93;47.63;;;6.80;99.90;;;;;;2104261;28;20115;-70
2021/11/17 04:37:51;;;;;;;90.95;45.67;;;6.80;99.90;;;;;;2089538;28;20446;-70
2021/11/17 04:39:13;;;;;;;95.10;46.13;;;6.80;99.90;;;;;;2080239;28;20021;-69
2021/11/17 04:40:57;;;;;;;97.38;46.30;;;6.80;99.90;;;;;;2091738;28;20020;-70
2021/11/17 04:42:13;;;;;;;91.72;44.50;;;6.80;99.90;;;;;;2083715;28;20075;-70
2021/11/17 04:43:20;;;;;;;97.40;47.65;;;6.80;99.90;;;;;;2092893;28;20455;-70
2021/11/17 04:44:57;;;;;;;97.68;47.42;;;6.80;99.90;;;;;;2103002;28;20073;-70
2021/11/17 04:46:18;;;;;;;94.35;45.17;;;6.70;99.90;;;;;;2098603;28;20440;-70
2021/11/17 04:47:21;;;;;;;94.57;44.65;;;6.80;99.90;;;;;;2099095;28;20373;-70
2021/11/17 04:49:07;;;;;;;89.97;43.67;;;6.70;99.90;;;;;;2094852;28;20059;-70
2021/11/17 04:50:30;;;;;;;88.68;43.58;;;6.70;99.90;;;;;;2105899;28;20047;-70
2021/11/17 04:51:30;;;;;;;86.55;41.80;;;6.70;99.90;;;;;;2096759;28;20032;-70
2021/11/17 04:52:46;;;;;;;96.10;46.65;;;6.70;99.90;;;;;;2098112;28;20028;-70
2021/11/17 04:54:22;;;;;;;92.78;44.92;;;6.80;99.90;;;;;;2098400;28;20027;-70
2021/11/17 04:55:48;;;;;;;93.13;45.00;;;6.80;99.90;;;;;;2097110;28;20115;-70
2021/11/17 04:56:51;;;;;;;92.88;44.20;;;6.70;99.90;;;;;;2086762;28;20569;-70
2021/11/17 04:58:11;;;;;;;91.35;44.17;;;6.80;99.90;;;;;;2092873;28;20550;-69
2021/11/17 04:59:54;;;;;;;90.55;44.35;;;6.80;99.90;;;;;;2105841;28;20365;-69
2021/11/17 05:01:01;;;;;;;93.90;43.90;;;6.80;99.90;;;;;;2090438;28;20053;-70
2021/11/17 05:02:18;;;;;;;95.55;46.08;;;6.80;99.90;;;;;;2101223;28;20056;-70
2021/11/17 05:03:34;;;;;;;92.90;46.47;;;6.80;99.90;;;;;;2105274;28;20514;-70
2021/11/17 05:05:13;;;;;;;91.88;45.03;;;6.80;99.90;;;;;;2105127;28;20441;-69
2021/11/17 05:06:41;;;;;;;95.70;45.17;;;6.70;99.90;;;;;;2092314;28;20032;-70
2021/11/17 05:08:18;;;;;;;96.47;45.97;;;6.70;99.90;;;;;;2100961;28;20051;-70
2021/11/17 05:09:25;;;;;;;92.40;45.22;;;6.70;99.90;;;;;;2092427;28;20577;-71
2021/11/17 05:10:38;;;;;;;93.70;45.50;;;6.70;99.90;;;;;;2097345;28;20488;-70
2021/11/17 05:11:58;;;;;;;100.88;47.35;;;6.70;99.90;;;;;;2084424;28;20172;-71
2021/11/17 05:13:36;;;;;;;98.80;47.22;;;6.70;99.90;;;;;;2072096;28;20026;-70
2021/11/17 05:14:59;;;;;;;98.47;45.33;;;6.70;99.90;;;;;;2098444;28;20016;-71
2021/11/17 05:16:27;;;;;;;94.43;44.35;;;6.60;99.90;;;;;;2099186;28;20410;-71
2021/11/17 05:17:54;;;;;;;97.13;45.92;;;6.60;99.90;;;;;;2103416;28;20027;-70
2021/11/17 05:19:33;;;;;;;102.07;47.50;;;6.60;99.90;;;;;;2098683;28;20058;-71
2021/11/17 05:21:14;;;;;;;101.00;46.13;;;6.60;99.90;;;;;;2095014;28;20687;-71
2021/11/17 05:22:36;;;;;;;97.63;45.83;;;6.60;99.90;;;;;;2086007;28;20062;-71
2021/11/17 05:23:45;;;;;;;95.85;45.55;;;6.60;99.90;;;;;;2088653;28;20025;-71
2021/11/17 05:25:01;;;;;;;96.85;45.75;;;6.60;99.90;;;;;;2097295;28;20464;-72
2021/11/17 05:26:30;;;;;;;97.07;45.20;;;6.60;99.90;;;;;;2101145;28;20029;-71
2021/11/17 05:27:49;;;;;;;102.38;46.75;;;6.60;99.90;;;;;;2102739;28;20069;-71
2021/11/17 05:29:17;;;;;;;99.43;46.38;;;6.50;99.90;;;;;;2098717;28;20028;-71
2021/11/17 05:31:01;;;;;;;102.88;46.92;;;6.50;99.90;;;;;;2102028;28;20399;-71
2021/11/17 05:32:17;;;;;;;103.97;46.38;;;6.50;99.90;;;;;;2096709;28;20059;-71
2021/11/17 05:33:48;;;;;;;112.07;49.22;;;6.50;99.90;;;;;;2105023;28;20483;-71
2021/11/17 05:35:18;;;;;;;98.88;45.22;;;6.50;99.90;;;;;;2097746;28;20070;-71
2021/11/17 05:36:42;;;;;;;98.82;45.75;;;6.50;99.90;;;;;;2093241;28;20107;-71
2021/11/17 05:38:09;;;;;;;98.70;45.90;;;6.60;99.90;;;;;;2095933;28;20563;-71
2021/11/17 05:39:20;;;;;;;97.70;44.22;;;6.50;99.90;;;;;;2087556;28;20029;-71
2021/11/17 05:40:50;;;;;;;;;;;6.60;99.90;;;;;;2095383;28;20036;-71
2021/11/17 05:41:57;;;;;;;98.07;45.08;;;6.60;99.90;;;;;;2094396;28;20119;-71
2021/11/17 05:43:16;;;;;;;105.05;47.17;;;6.60;99.90;;;;;;2102702;28;20036;-71
2021/11/17 05:44:42;;;;;;;103.20;47.03;;;6.60;99.90;;;;;;2093038;28;20025;-71
2021/11/17 05:45:49;;;;;;;100.97;46.75;;;6.60;99.90;;;;;;2091970;28;20028;-71
2021/11/17 05:46:56;;;;;;;104.30;48.10;;;6.50;99.90;;;;;;2097973;28;20035;-71
2021/11/17 05:48:06;;;;;;;115.25;52.53;;;6.60;99.90;;;;;;2105926;28;20036;-71
2021/11/17 05:49:28;;;;;;;112.63;49.78;;;6.50;99.90;;;;;;2105651;28;20027;-71
2021/11/17 05:51:16;;;;;;;111.18;48.97;;;6.50;99.90;;;;;;2098735;28;20034;-71
2021/11/17 05:53:00;;;;;;;105.63;47.05;;;6.50;99.90;;;;;;2095481;28;20040;-72
2021/11/17 05:54:20;;;;;;;99.57;46.10;;;6.50;99.90;;;;;;2100887;28;20039;-68
2021/11/17 05:55:27;;;;;;;105.05;46.65;;;6.50;99.90;;;;;;2105361;28;20663;-71
2021/11/17 05:57:04;;;;;;;102.80;46.33;;;6.50;99.90;;;;;;2099563;28;20060;-71
2021/11/17 05:58:44;;;;;;;103.70;46.38;;;6.50;99.90;;;;;;2101110;28;20451;-71
2021/11/17 05:59:56;;;;;;;99.78;45.22;;;6.50;99.90;;;;;;2097806;28;20499;-71
2021/11/17 06:01:31;;;;;;;96.57;44.42;;;6.50;99.90;;;;;;2105021;28;20557;-71
2021/11/17 06:02:54;;;;;;;97.63;44.58;;;6.50;99.90;;;;;;2104118;28;20024;-70
2021/11/17 06:04:06;;;;;;;96.75;44.53;;;6.50;99.90;;;;;;2097852;28;20032;-71
2021/11/17 06:05:07;;;;;;;96.75;44.78;;;6.60;99.90;;;;;;2105284;28;20050;-71
2021/11/17 06:06:11;;;;;;;96.05;45.20;;;6.60;99.90;;;;;;2100593;28;20487;-71
2021/11/17 06:07:11;;;;;;;92.18;44.95;;;6.60;99.90;;;;;;2096438;28;20028;-71
2021/11/17 06:08:15;;;;;;;93.68;44.85;;;6.60;99.90;;;;;;2092231;28;20476;-72
2021/11/17 06:09:20;;;;;;;99.03;44.95;;;6.60;99.90;;;;;;2096037;28;20036;-72
2021/11/17 06:10:43;;;;;;;100.53;46.15;;;6.60;99.90;;;;;;2088827;28;20047;-70
2021/11/17 06:11:58;;;;;;;91.45;43.72;;;6.60;99.90;;;;;;2087033;28;20646;-70
2021/11/17 06:13:00;;;;;;;96.50;45.03;;;6.60;99.90;;;;;;2098521;28;20070;-72
2021/11/17 06:14:02;;;;;;;93.60;44.45;;;6.60;99.90;;;;;;2100892;28;20029;-71
2021/11/17 06:15:06;;;;;;;99.10;46.65;;;6.60;99.90;;;;;;2104824;28;20102;-71
2021/11/17 06:16:07;;;;;;;96.80;45.28;;;6.60;99.90;;;;;;2099815;28;20028;-71
2021/11/17 06:17:34;;;;;;;100.07;47.05;;;6.60;99.90;;;;;;2101861;28;20025;-71
2021/11/17 06:18:36;;;;;;;99.80;47.20;;;6.60;99.90;;;;;;2103897;28;20490;-72
2021/11/17 06:19:44;;;;;;;103.30;47.90;;;6.60;99.90;;;;;;2102200;28;20016;-72
2021/11/17 06:20:46;;;;;;;109.72;49.97;;;6.60;99.90;;;;;;2098078;28;20024;-72
2021/11/17 06:21:47;;;;;;;107.97;51.30;;;6.60;99.90;;;;;;2101171;28;20024;-72
2021/11/17 06:22:54;;;;;;;104.95;49.70;;;6.60;99.90;;;;;;2105214;28;20048;-72
2021/11/17 06:23:59;;;;;;;106.93;49.70;;;6.60;99.90;;;;;;2105813;28;20024;-72
2021/11/17 06:25:04;;;;;;;103.68;48.33;;;6.60;99.90;;;;;;2105948;28;20666;-72
2021/11/17 06:26:05;;;;;;;111.50;49.97;;;6.60;99.90;;;;;;2105560;28;20418;-72
2021/11/17 06:27:14;;;;;;;104.85;49.45;;;6.60;99.90;;;;;;2105999;28;20036;-72
2021/11/17 06:28:20;;;;;;;103.65;47.53;;;6.60;99.90;;;;;;2101451;28;20399;-72
2021/11/17 06:29:28;;;;;;;109.22;50.05;;;6.60;99.90;;;;;;2104060;28;20032;-72
2021/11/17 06:30:32;;;;;;;106.00;49.08;;;6.60;99.90;;;;;;2103683;28;20085;-72
2021/11/17 06:31:36;;;;;;;108.72;49.63;;;6.60;99.90;;;;;;2106843;28;20111;-72
2021/11/17 06:32:37;;;;;;;111.28;49.03;;;6.60;99.90;;;;;;2107139;28;20553;-72
2021/11/17 06:33:37;;;;;;;99.97;46.92;;;6.60;99.90;;;;;;2106147;28;20062;-72
2021/11/17 06:34:44;;;;;;;108.93;50.95;;;6.60;99.90;;;;;;2096334;28;20032;-71
2021/11/17 06:35:45;;;;;;;106.93;49.65;;;6.60;99.90;;;;;;2095959;28;20036;-70
2021/11/17 06:36:45;;;;;;;103.57;48.15;;;6.60;99.90;;;;;;2105184;28;20103;-72
2021/11/17 06:37:46;;;;;;;106.45;50.72;;;6.60;99.90;;;;;;2100661;28;20020;-70
2021/11/17 06:38:47;;;;;;;93.50;45.75;;;6.60;99.90;;;;;;2104913;28;20564;-70
2021/11/17 06:39:50;;;;;;;96.57;46.28;;;6.60;99.90;;;;;;2100597;28;20025;-70
2021/11/17 06:40:52;;;;;;;103.00;47.67;;;6.50;99.90;;;;;;2105172;28;20396;-70
2021/11/17 06:41:54;;;;;;;93.47;45.08;;;6.60;99.90;;;;;;2100361;28;20059;-70
2021/11/17 06:42:57;;;;;;;94.18;46.47;;;6.60;99.90;;;;;;2105202;28;20022;-70
2021/11/17 06:43:57;;;;;;;105.40;49.10;;;6.60;99.90;;;;;;2100613;28;20036;-70
2021/11/17 06:44:59;;;;;;;107.95;49.22;;;6.50;99.90;;;;;;2105150;28;20030;-70
2021/11/17 06:46:00;;;;;;;105.68;49.10;;;6.60;99.90;;;;;;2100114;28;20075;-71
2021/11/17 06:47:00;;;;;;;112.55;51.60;;;6.50;99.90;;;;;;2105163;28;20438;-71
2021/11/17 06:48:05;;;;;;;100.95;47.65;;;6.50;99.90;;;;;;2100623;28;20388;-70
2021/11/17 06:49:05;;;;;;;97.50;47.13;;;6.50;99.90;;;;;;2105084;28;20472;-70
2021/11/17 06:50:07;;;;;;;98.53;47.30;;;6.50;99.90;;;;;;2099824;28;20097;-71
2021/11/17 06:51:08;;;;;;;99.03;46.88;;;6.50;99.90;;;;;;2104398;28;20028;-72
2021/11/17 06:52:09;;;;;;;95.90;45.33;;;6.60;99.90;;;;;;2099836;28;20423;-71
2021/11/17 06:53:10;;;;;;;93.00;44.53;;;6.50;99.90;;;;;;2104786;28;20028;-71
2021/11/17 06:54:11;;;;;;;95.07;45.08;;;6.60;99.90;;;;;;2096485;28;20112;-71
2021/11/17 06:55:13;;;;;;;102.90;47.72;;;6.60;99.90;;;;;;2100300;28;20771;-71
2021/11/17 06:56:17;;;;;;;103.40;46.83;;;6.60;99.90;;;;;;2099930;28;20431;-71
2021/11/17 06:57:18;;;;;;;100.80;46.50;;;6.60;99.90;;;;;;2103826;28;20012;-72
2021/11/17 06:58:20;;;;;;;103.05;47.80;;;6.60;99.90;;;;;;2101033;28;20082;-72
2021/11/17 06:59:21;;;;;;;99.30;47.10;;;6.50;99.90;;;;;;2086824;28;20159;-72
2021/11/17 07:00:25;;;;;;;97.60;45.70;;;6.50;99.90;;;;;;2093339;28;20079;-72
2021/11/17 07:01:26;;;;;;;93.65;44.63;;;6.50;99.90;;;;;;2102827;28;20086;-72
2021/11/17 07:02:27;;;;;;;98.85;46.22;;;6.50;99.90;;;;;;2102709;28;20384;-71
2021/11/17 07:03:30;;;;;;;94.32;44.35;;;6.50;99.90;;;;;;2102771;28;20072;-72
2021/11/17 07:04:35;;;;;;;100.20;45.08;;;6.50;99.90;;;;;;2103352;28;20020;-72
2021/11/17 07:05:36;;;;;;;88.72;42.35;;;6.50;99.90;;;;;;2101170;28;20032;-70
2021/11/17 07:06:37;;;;;;;89.97;41.88;;;6.50;99.90;;;;;;2103149;28;20077;-70
2021/11/17 07:07:38;;;;;;;88.32;41.88;;;6.50;99.90;;;;;;2103205;28;20123;-70
2021/11/17 07:08:39;;;;;;;93.72;44.53;;;6.50;99.90;;;;;;2102422;28;20028;-70
2021/11/17 07:09:40;;;;;;;95.00;45.17;;;6.50;99.90;;;;;;2102290;28;20028;-70
2021/11/17 07:10:41;;;;;;;90.18;43.55;;;6.50;99.90;;;;;;2101606;28;20032;-70
2021/11/17 07:11:41;;;;;;;92.20;43.20;;;6.50;99.90;;;;;;2103013;28;20027;-70
2021/11/17 07:12:42;;;;;;;91.70;43.58;;;6.50;99.90;;;;;;2104354;28;20024;-70
2021/11/17 07:13:43;;;;;;;92.25;42.30;;;6.60;99.90;;;;;;2102599;28;20098;-71
2021/11/17 07:14:45;;;;;;;85.07;41.40;;;6.60;99.90;;;;;;2101974;28;20088;-70
2021/11/17 07:15:47;;;;;;;92.47;42.95;;;6.50;99.90;;;;;;2099770;28;20020;-71
2021/11/17 07:16:49;;;;;;;87.38;42.58;;;6.50;99.90;;;;;;2101477;28;20658;-70
2021/11/17 07:17:50;;;;;;;87.63;42.17;;;6.50;99.90;;;;;;2101633;28;20078;-71
2021/11/17 07:18:51;;;;;;;84.80;41.33;;;6.50;99.90;;;;;;2104521;28;20532;-72
2021/11/17 07:19:51;;;;;;;86.43;41.10;;;6.50;99.90;;;;;;2101526;28;20033;-70
2021/11/17 07:20:52;;;;;;;86.68;40.92;;;6.50;99.90;;;;;;2106852;28;20016;-71
2021/11/17 07:21:58;;;;;;;82.82;40.42;;;6.60;99.90;;;;;;2106685;28;20039;-70
2021/11/17 07:22:59;;;;;;;84.97;40.20;;;6.50;99.90;;;;;;2106650;28;20134;-71
2021/11/17 07:23:59;;;;;;;85.00;41.25;;;6.60;99.90;;;;;;2102871;28;20036;-70
2021/11/17 07:25:03;;;;;;;96.95;44.60;;;6.50;99.90;;;;;;2097789;28;20036;-70
2021/11/17 07:26:04;;;;;;;97.05;44.28;;;6.60;99.90;;;;;;2100264;28;20036;-71
2021/11/17 07:27:06;;;;;;;88.20;42.00;;;6.50;99.90;;;;;;2106680;28;20491;-72
2021/11/17 07:28:07;;;;;;;90.32;43.10;;;6.50;99.90;;;;;;2104448;28;20085;-71
2021/11/17 07:29:07;;;;;;;87.25;41.35;;;6.50;99.90;;;;;;2106146;28;20032;-71
2021/11/17 07:30:12;;;;;;;83.85;40.30;;;6.50;99.90;;;;;;2106579;28;20031;-73
2021/11/17 07:31:13;;;;;;;85.47;39.95;;;6.50;99.90;;;;;;2105876;28;20047;-72
2021/11/17 07:32:13;;;;;;;88.75;42.00;;;6.50;99.90;;;;;;2106228;28;20032;-70
2021/11/17 07:33:16;;;;;;;85.13;40.95;;;6.50;99.90;;;;;;2106788;28;20119;-72
2021/11/17 07:34:19;;;;;;;78.35;38.78;;;6.50;99.90;;;;;;2107050;28;20559;-72
2021/11/17 07:35:22;;;;;;;83.55;40.50;;;6.50;99.90;;;;;;2107098;28;20020;-72
2021/11/17 07:36:23;;;;;;;84.15;39.90;;;6.50;99.90;;;;;;2106673;28;20032;-73
2021/11/17 07:37:23;;;;;;;83.63;40.85;;;6.60;99.90;;;;;;2107023;28;20039;-72
2021/11/17 07:38:25;;;;;;;86.97;41.45;;;6.50;99.90;;;;;;2106785;28;20043;-72
2021/11/17 07:39:25;;;;;;;88.97;43.80;;;6.60;99.90;;;;;;2106891;28;20028;-71
2021/11/17 07:40:27;;;;;;;85.82;42.70;;;6.60;99.90;;;;;;2106773;28;20108;-73
2021/11/17 07:41:28;;;;;;;82.78;40.83;;;6.60;99.90;;;;;;2106436;28;20114;-71
2021/11/17 07:42:29;;;;;;;88.72;41.78;;;6.60;99.90;;;;;;2097686;28;20032;-71
2021/11/17 07:43:30;;;;;;;84.22;40.38;;;6.50;99.90;;;;;;2097714;28;20527;-71
2021/11/17 07:44:31;;;;;;;86.50;41.53;;;6.50;99.90;;;;;;2106019;28;20035;-72
2021/11/17 07:45:33;;;;;;;84.40;40.13;;;6.50;99.90;;;;;;2106218;28;20100;-71
2021/11/17 07:46:34;;;;;;;89.15;41.30;;;6.50;99.90;;;;;;2105742;28;20028;-71
2021/11/17 07:47:35;;;;;;;83.43;39.10;;;6.50;99.90;;;;;;2097795;28;20124;-71
2021/11/17 07:48:35;;;;;;;80.90;38.45;;;6.50;99.90;;;;;;2105834;28;20059;-74
2021/11/17 07:49:36;;;;;;;89.07;41.83;;;6.50;99.90;;;;;;2106842;28;20024;-71
2021/11/17 07:50:39;;;;;;;88.22;41.28;;;6.50;99.90;;;;;;2106040;28;20502;-71
2021/11/17 07:51:41;;;;;;;88.85;40.80;;;6.50;99.90;;;;;;2103118;28;20031;-72
2021/11/17 07:52:42;;;;;;;81.72;39.25;;;6.50;99.90;;;;;;2106146;28;20047;-71
2021/11/17 07:53:43;;;;;;;85.75;40.63;;;6.50;99.90;;;;;;2106606;28;20080;-72
2021/11/17 07:54:43;;;;;;;86.43;41.17;;;6.50;99.90;;;;;;2106705;28;20073;-72
2021/11/17 07:55:46;;;;;;;93.30;42.20;;;6.50;99.90;;;;;;2106303;28;20502;-71
2021/11/17 07:56:49;;;;;;;87.90;40.95;;;6.50;99.90;;;;;;2106473;28;20024;-70
2021/11/17 07:58:15;;;;;;;84.00;39.38;;;6.50;99.90;;;;;;2106755;28;20039;-71
2021/11/17 07:59:21;;;;;;;82.50;37.90;;;6.50;99.90;;;;;;2105443;28;20111;-72
2021/11/17 08:00:27;;;;;;;80.53;38.90;;;6.50;99.90;;;;;;2106088;28;20495;-71
2021/11/17 08:01:29;;;;;;;78.45;37.35;;;6.50;99.90;;;;;;2106425;28;20020;-71
2021/11/17 08:02:31;;;;;;;79.43;38.03;;;6.60;99.90;;;;;;2106855;28;20043;-71
2021/11/17 08:03:36;;;;;;;75.05;35.97;;;6.60;99.90;;;;;;2106639;28;20407;-71
2021/11/17 08:04:38;;;;;;;83.43;38.88;;;6.60;99.90;;;;;;2106616;28;20029;-68
2021/11/17 08:05:43;;;;;;;74.43;37.17;;;6.60;99.90;;;;;;2106161;28;20115;-71
2021/11/17 08:06:45;;;;;;;75.47;35.78;;;6.60;99.90;;;;;;2106901;28;20509;-71
2021/11/17 08:07:45;;;;;;;83.25;39.58;;;6.60;99.90;;;;;;2106518;28;20032;-70
2021/11/17 08:08:46;;;;;;;82.38;39.15;;;6.60;99.90;;;;;;2106428;28;20440;-71
2021/11/17 08:09:49;;;;;;;80.85;39.08;;;6.60;99.90;;;;;;2105857;28;20636;-69
2021/11/17 08:10:51;;;;;;;83.93;39.45;;;6.60;99.90;;;;;;2105998;28;20031;-70
2021/11/17 08:11:51;;;;;;;86.78;40.30;;;6.60;99.90;;;;;;2106405;28;20024;-70
2021/11/17 08:12:52;;;;;;;81.85;39.53;;;6.60;99.90;;;;;;2107315;28;20124;-70
2021/11/17 08:13:53;;;;;;;79.32;38.28;;;6.60;99.90;;;;;;2107015;28;20028;-70
2021/11/17 08:14:54;;;;;;;73.97;36.78;;;6.60;99.90;;;;;;2106750;28;20488;-70
2021/11/17 08:15:57;;;;;;;85.43;39.92;;;6.60;99.90;;;;;;2106097;28;20499;-69
2021/11/17 08:16:57;;;;;;;85.90;39.33;;;6.60;99.90;;;;;;2106815;28;20036;-69
2021/11/17 08:17:58;;;;;;;77.97;37.72;;;6.60;99.90;;;;;;2106500;28;20032;-71
2021/11/17 08:18:59;;;;;;;75.70;37.05;;;6.60;99.90;;;;;;2106420;28;20097;-70
2021/11/17 08:20:00;;;;;;;77.68;37.00;;;6.60;99.90;;;;;;2105843;28;20016;-69
2021/11/17 08:21:01;;;;;;;72.43;36.60;;;6.70;99.90;;;;;;2105974;28;20062;-68
2021/11/17 08:22:06;;;;;;;78.18;37.45;;;6.70;99.90;;;;;;2106229;28;20082;-69
2021/11/17 08:23:07;;;;;;;78.57;37.08;;;6.70;99.90;;;;;;2106427;28;20036;-69
2021/11/17 08:24:08;;;;;;;83.45;39.13;;;6.70;99.90;;;;;;2106058;28;20051;-68
2021/11/17 08:25:10;;;;;;;74.75;35.85;;;6.70;99.90;;;;;;2106299;28;20047;-69
2021/11/17 08:26:12;;;;;;;80.10;37.42;;;6.70;99.90;;;;;;2105620;28;20028;-70
2021/11/17 08:27:19;;;;;;;77.10;37.35;;;6.70;99.90;;;;;;2106212;28;20107;-69
2021/11/17 08:28:20;;;;;;;75.38;35.50;;;6.70;99.90;;;;;;2106386;28;20052;-70
2021/11/17 08:29:21;;;;;;;74.53;36.55;;;6.70;99.90;;;;;;2105471;28;20027;-71
2021/11/17 08:30:24;;;;;;;79.35;37.53;;;6.70;99.90;;;;;;2105535;28;20032;-70
2021/11/17 08:31:25;;;;;;;75.88;36.58;;;6.70;99.90;;;;;;2105140;28;20387;-70
2021/11/17 08:32:26;;;;;;;77.85;37.53;;;6.70;99.90;;;;;;2106174;28;20020;-70
2021/11/17 08:33:27;;;;;;;74.05;36.22;;;6.70;99.90;;;;;;2106365;28;20035;-71
2021/11/17 08:34:28;;;;;;;73.35;34.65;;;6.70;99.90;;;;;;2105859;28;20034;-71
2021/11/17 08:35:29;;;;;;;72.22;34.72;;;6.70;99.90;;;;;;2105970;28;20020;-70
2021/11/17 08:36:30;;;;;;;79.90;38.28;;;6.70;99.90;;;;;;2106245;28;20360;-70
2021/11/17 08:37:31;;;;;;;78.55;35.95;;;6.70;99.90;;;;;;2106475;28;20034;-71
2021/11/17 08:38:34;;;;;;;83.63;39.70;;;6.70;99.90;;;;;;2106244;28;20063;-71